Latest Weather Observations for High Range (Wanganderry)

IDN60801

Issued at 11:03 am EST Wednesday 21 April 2021 (issued every 10 minutes, with the page automatically refreshed every 10 minutes)

About weather observations | Map of weather stations | Latest weather observations for NSW | Other Formats
Station Details ID: 068262 Name: HIGH RANGE AWS (WANGANDERRY) Lat: -34.33 Lon: 150.27 Height: 813.6 m
Data from the previous 72 hours. | See also: Recent months for locations in New South Wales
Date/Time
EST
Temp
°C
App
Temp
°C
Dew
Point
°C
Rel
Hum
%
Delta-T
°C
Wind Press
QNH
hPa
Press
MSL
hPa
Rain since
9am
mm
Dir  Spd
km/h
Gust
km/h
Spd
kts
Gust
kts
21/11:00am 10.9 5.6 3.0 58 3.6 SW 20 32 11 17 1014.4 1012.4 0.0
21/10:30am 10.3 5.1 3.3 62 3.2 WSW 20 26 11 14 1014.5 1012.5 0.0
21/10:00am 9.3 4.1 3.7 68 2.6 WSW 20 28 11 15 1014.4 1012.4 0.0
21/09:30am 8.7 3.7 4.5 75 1.9 WSW 20 30 11 16 1014.4 1012.4 0.0
21/09:00am 8.0 2.6 4.6 79 1.6 WSW 22 30 12 16 1014.4 1012.4 0.6
21/08:30am 7.3 2.5 4.4 82 1.3 WSW 19 26 10 14 1014.1 1012.1 0.6
21/08:00am 6.7 1.8 5.0 89 0.8 WSW 20 30 11 16 1013.6 1011.6 0.6
21/07:30am 5.9 1.5 4.7 92 0.5 WSW 17 26 9 14 1013.2 1011.2 0.6
21/07:00am 5.6 -0.3 4.1 90 0.7 WSW 24 37 13 20 1012.6 1010.6 0.6
21/06:30am 5.7 0.5 3.7 87 0.9 SW 20 28 11 15 1012.3 1010.3 0.6
21/06:00am 6.1 0.5 3.6 84 1.1 WSW 22 35 12 19 1011.9 1009.8 0.6
21/05:30am 6.0 0.8 3.5 84 1.1 WSW 20 37 11 20 1011.5 1009.5 0.6
21/05:00am 6.5 0.7 4.3 86 1.0 W 24 32 13 17 1011.1 1009.1 0.6
21/04:30am 7.1 0.8 5.7 91 0.7 WSW 28 44 15 24 1010.9 1008.8 0.6
21/04:00am 7.3 2.7 6.6 95 0.3 WSW 20 32 11 17 1010.7 1008.6 0.6
21/03:30am 8.0 2.4 7.1 94 0.4 W 26 35 14 19 1010.5 1008.4 0.6
21/03:00am 8.1 3.8 7.7 97 0.2 W 20 26 11 14 1010.3 1008.3 0.6
21/02:30am 8.4 4.5 7.3 93 0.5 WSW 17 26 9 14 1010.7 1008.6 0.6
21/02:00am 8.3 4.8 7.2 93 0.5 WSW 15 24 8 13 1010.8 1008.7 0.4
21/01:30am 8.9 3.9 6.5 85 1.2 WSW 22 35 12 19 1011.1 1009.1 0.4
21/01:00am 9.2 4.8 6.5 83 1.3 WSW 19 28 10 15 1011.2 1009.2 0.4
21/12:30am 10.0 4.1 5.6 74 2.1 WSW 26 39 14 21 1011.3 1009.3 0.4
21/12:00am 9.3 4.4 4.9 74 2.1 SW 20 28 11 15 1010.9 1008.8 0.4
 
Date/Time
EST
Temp
°C
App
Temp
°C
Dew
Point
°C
Rel
Hum
%
Delta-T
°C
Wind Press
QNH
hPa
Press
MSL
hPa
Rain since
9am
mm
Dir  Spd
km/h
Gust
km/h
Spd
kts
Gust
kts
20/11:30pm 10.0 5.3 5.0 71 2.4 SW 19 26 10 14 1011.1 1009.1 0.4
20/11:00pm 10.2 7.0 5.0 70 2.5 W 11 15 6 8 1011.1 1009.1 0.4
20/10:30pm 9.7 2.1 5.7 76 1.9 WSW 35 65 19 35 1011.5 1009.5 0.4
20/10:24pm 12.5 6.5 3.5 54 4.2 W 24 61 13 33 1011.8 1009.7 0.0
20/10:00pm 12.7 6.6 2.8 51 4.6 WNW 24 39 13 21 1011.4 1009.4 0.0
20/09:30pm 12.1 7.3 2.8 53 4.3 WNW 17 30 9 16 1011.5 1009.5 0.0
20/09:00pm 12.8 7.4 2.6 50 4.7 NW 20 35 11 19 1011.6 1009.6 0.0
20/08:30pm 12.4 8.0 2.8 52 4.4 NW 15 22 8 12 1011.9 1009.8 0.0
20/08:00pm 12.8 8.1 2.9 51 4.6 WNW 17 37 9 20 1012.2 1010.2 0.0
20/07:30pm 12.6 9.4 3.3 53 4.3 WNW 9 17 5 9 1012.8 1010.8 0.0
20/07:00pm 13.0 9.2 3.7 53 4.4 NW 13 20 7 11 1012.6 1010.6 0.0
20/06:30pm 12.3 8.4 3.5 55 4.1 WNW 13 19 7 10 1012.4 1010.4 0.0
20/06:00pm 13.1 8.5 3.5 52 4.5 WNW 17 22 9 12 1012.2 1010.2 0.0
20/05:30pm 12.6 7.9 3.0 52 4.4 WNW 17 24 9 13 1012.3 1010.3 0.0
20/05:00pm 14.0 8.4 3.2 48 5.1 W 22 41 12 22 1012.1 1010.1 0.0
20/04:30pm 15.0 10.5 4.1 48 5.3 NW 17 26 9 14 1012.1 1010.1 0.0
20/04:00pm 15.4 9.9 3.9 46 5.6 WNW 22 33 12 18 1012.0 1009.9 0.0
20/03:30pm 15.6 10.1 4.0 46 5.6 NW 22 33 12 18 1012.0 1009.9 0.0
20/03:00pm 15.8 10.4 4.5 47 5.5 NW 22 32 12 17 1012.1 1010.1 0.0
20/02:30pm 16.3 11.6 5.3 48 5.5 NW 19 32 10 17 1012.1 1010.1 0.0
20/02:00pm 16.4 11.6 5.4 48 5.5 NW 20 30 11 16 1012.3 1010.3 0.0
20/01:30pm 15.4 10.0 4.5 48 5.3 WNW 22 33 12 18 1012.6 1010.6 0.0
20/01:00pm 15.1 9.4 4.8 50 5.1 WNW 24 37 13 20 1013.2 1011.2 0.0
20/12:30pm 14.6 8.5 4.6 51 4.9 WNW 26 35 14 19 1013.6 1011.6 0.0
20/12:00pm 14.0 8.7 5.1 55 4.4 W 22 37 12 20 1014.2 1012.3 0.0
20/11:30am 13.5 6.9 4.4 54 4.4 W 28 39 15 21 1014.6 1012.6 0.0
20/11:08am 14.4 8.1 5.7 56 4.3 W 28 48 15 26 1015.0 1013.0 0.0
20/11:00am 13.8 6.6 5.2 56 4.2 W 32 48 17 26 1014.9 1012.9 0.0
20/10:30am 13.1 5.8 5.5 60 3.7 W 33 44 18 24 1015.3 1013.4 0.0
20/10:00am 12.2 4.4 4.9 61 3.5 W 35 44 19 24 1015.4 1013.5 0.0
20/09:30am 12.3 6.3 5.5 63 3.3 W 26 33 14 18 1015.7 1013.7 0.0
20/09:00am 11.2 5.2 5.1 66 2.9 W 26 35 14 19 1016.1 1014.1 0.0
20/08:30am 10.6 4.0 4.1 64 3.0 W 28 39 15 21 1016.1 1014.1 0.0
20/08:00am 10.4 4.6 4.5 67 2.8 W 24 33 13 18 1016.0 1014.0 0.0
20/07:30am 9.4 3.9 4.2 70 2.4 W 22 32 12 17 1015.9 1013.9 0.0
20/07:00am 8.9 1.9 4.1 72 2.2 W 30 39 16 21 1015.5 1013.6 0.0
20/06:30am 8.0 1.9 4.6 79 1.6 W 26 33 14 18 1015.4 1013.5 0.0
20/06:00am 8.1 2.0 4.7 79 1.6 W 26 32 14 17 1015.2 1013.2 0.0
20/05:30am 8.4 1.5 4.6 77 1.8 W 30 37 16 20 1015.0 1013.0 0.0
20/05:00am 8.4 0.9 4.6 77 1.8 W 33 41 18 22 1014.9 1012.9 0.0
20/04:30am 9.0 1.2 4.8 75 2.0 W 35 46 19 25 1015.1 1013.1 0.0
20/04:00am 9.0 1.6 5.0 76 1.9 W 33 46 18 25 1014.8 1012.8 0.0
20/03:30am 7.6 1.5 4.6 81 1.4 WSW 26 30 14 16 1015.0 1013.0 0.0
20/03:00am 8.3 1.8 4.9 79 1.6 WSW 28 33 15 18 1015.0 1013.0 0.0
20/02:30am 8.5 2.3 4.1 74 2.0 WSW 26 37 14 20 1015.3 1013.4 0.0
20/02:00am 8.9 1.9 4.3 73 2.1 W 30 35 16 19 1015.7 1013.7 0.0
20/01:30am 9.3 3.5 4.3 71 2.3 W 24 32 13 17 1016.1 1014.1 0.0
20/01:00am 9.3 3.1 4.1 70 2.4 W 26 32 14 17 1016.2 1014.2 0.0
20/12:30am 8.9 2.5 3.3 68 2.5 W 26 30 14 16 1016.4 1014.5 0.0
20/12:00am 8.9 4.9 3.1 67 2.6 WNW 13 17 7 9 1016.5 1014.6 0.0
 
Date/Time
EST
Temp
°C
App
Temp
°C
Dew
Point
°C
Rel
Hum
%
Delta-T
°C
Wind Press
QNH
hPa
Press
MSL
hPa
Rain since
9am
mm
Dir  Spd
km/h
Gust
km/h
Spd
kts
Gust
kts
19/11:30pm 9.1 5.5 2.7 64 2.9 WNW 11 13 6 7 1016.6 1014.7 0.0
19/11:00pm 9.4 4.4 3.4 66 2.7 W 19 22 10 12 1016.8 1014.9 0.0
19/10:30pm 9.5 4.9 3.7 67 2.7 W 17 22 9 12 1017.2 1015.2 0.0
19/10:00pm 9.8 4.7 2.9 62 3.1 W 19 20 10 11 1017.4 1015.4 0.0
19/09:30pm 10.1 4.4 2.9 61 3.3 W 22 24 12 13 1017.4 1015.4 0.0
19/09:00pm 10.1 4.9 2.7 60 3.3 W 19 20 10 11 1017.3 1015.3 0.0
19/08:30pm 9.8 5.6 1.7 57 3.6 W 13 19 7 10 1017.4 1015.4 0.0
19/08:00pm 9.9 5.6 1.0 54 3.8 W 13 17 7 9 1017.6 1015.7 0.0
19/07:30pm 11.3 7.0 1.3 50 4.4 W 13 15 7 8 1017.8 1015.9 0.0
19/07:00pm 11.7 7.0 1.1 48 4.7 W 15 20 8 11 1017.6 1015.7 0.0
19/06:30pm 12.7 6.6 0.5 43 5.4 WSW 22 30 12 16 1017.3 1015.3 0.0
19/06:00pm 12.8 6.8 -1.9 36 6.1 W 20 28 11 15 1016.9 1015.0 0.0
19/05:30pm 13.0 7.8 0.4 42 5.5 W 17 22 9 12 1016.6 1014.7 0.0
19/05:00pm 14.7 9.5 0.2 37 6.4 W 17 22 9 12 1016.5 1014.6 0.0
19/04:30pm 16.1 11.2 -0.2 33 7.3 WNW 15 20 8 11 1016.5 1014.6 0.0
19/04:00pm 16.8 11.6 0.0 32 7.6 WNW 17 22 9 12 1016.3 1014.3 0.0
19/03:30pm 17.2 12.0 0.4 32 7.6 WNW 17 24 9 13 1016.2 1014.2 0.0
19/03:00pm 17.6 13.1 2.4 36 7.2 WNW 15 20 8 11 1016.3 1014.3 0.0
19/02:30pm 17.2 12.9 0.8 33 7.5 W 13 20 7 11 1016.3 1014.3 0.0
19/02:00pm 17.5 14.2 2.3 36 7.2 W 9 20 5 11 1016.4 1014.5 0.0
19/01:30pm 17.1 14.0 3.8 41 6.5 W 9 17 5 9 1016.5 1014.6 0.0
19/01:00pm 16.6 13.1 3.7 42 6.2 WNW 11 19 6 10 1017.1 1015.1 0.0
19/12:30pm 15.9 12.9 4.0 45 5.8 WNW 9 15 5 8 1017.4 1015.4 0.0
19/12:00pm 15.4 11.2 1.9 40 6.2 WNW 13 20 7 11 1018.0 1016.1 0.0
19/11:30am 14.7 10.8 3.2 46 5.4 WNW 13 19 7 10 1018.5 1016.5 0.0
19/11:00am 14.1 9.6 4.1 51 4.8 WNW 17 22 9 12 1018.8 1016.9 0.0
19/10:30am 13.4 9.2 4.0 53 4.5 WNW 15 20 8 11 1018.9 1017.0 0.0
19/10:00am 12.3 7.3 3.5 55 4.1 WNW 19 24 10 13 1019.2 1017.3 0.0
19/09:30am 11.5 7.2 3.3 57 3.8 N 15 20 8 11 1019.3 1017.4 0.0
19/09:00am 11.0 7.1 3.5 60 3.5 NNE 13 17 7 9 1019.7 1017.8 0.2
19/08:30am 10.2 6.4 3.7 64 3.0 NNE 13 17 7 9 1019.8 1017.9 0.2
19/08:00am 9.5 6.0 3.5 66 2.7 NNE 11 13 6 7 1019.9 1018.0 0.2
19/07:30am 8.5 4.6 3.6 71 2.2 NNE 13 15 7 8 1019.7 1017.8 0.2
19/07:00am 7.6 3.2 2.7 71 2.2 NNE 15 17 8 9 1019.4 1017.5 0.2
19/06:30am 7.1 3.5 2.8 74 1.9 NNE 11 15 6 8 1019.3 1017.4 0.2
19/06:00am 7.0 3.1 3.3 77 1.6 NNE 13 13 7 7 1019.2 1017.3 0.2
19/05:30am 6.9 3.0 3.3 78 1.6 NNE 13 15 7 8 1019.2 1017.3 0.2
19/05:00am 6.8 3.3 3.4 79 1.5 NNE 11 13 6 7 1019.1 1017.2 0.2
19/04:30am 6.9 3.4 3.5 79 1.5 NNE 11 13 6 7 1019.0 1017.1 0.2
19/04:00am 7.3 3.1 3.7 78 1.6 NNE 15 15 8 8 1019.0 1017.1 0.2
19/03:30am 7.6 3.4 5.7 88 0.9 NNE 17 19 9 10 1019.0 1017.1 0.2
19/03:00am 8.1 5.2 8.1 100 0.0 NNE 13 15 7 8 1019.1 1017.2 0.2
19/02:30am 8.1 5.2 8.1 100 0.0 NNE 13 15 7 8 1019.4 1017.5 0.2
19/02:00am 8.2 6.1 8.2 100 0.0 NNE 9 11 5 6 1019.5 1017.6 0.0
19/01:30am 8.3 6.6 8.3 100 0.0 NNE 7 7 4 4 1019.8 1017.9 0.0
19/01:00am 8.9 6.6 8.9 100 0.0 NNE 11 13 6 7 1020.0 1018.1 0.0
19/12:30am 9.6 7.8 9.6 100 0.0 NNE 9 13 5 7 1020.1 1018.2 0.0
19/12:00am 9.5 7.7 9.5 100 0.0 NNE 9 13 5 7 1020.3 1018.4 0.0
 
Date/Time
EST
Temp
°C
App
Temp
°C
Dew
Point
°C
Rel
Hum
%
Delta-T
°C
Wind Press
QNH
hPa
Press
MSL
hPa
Rain since
9am
mm
Dir  Spd
km/h
Gust
km/h
Spd
kts
Gust
kts
18/11:30pm 9.4 7.6 9.4 100 0.0 NNE 9 11 5 6 1020.4 1018.5 0.0
18/11:00pm 9.4 7.6 9.4 100 0.0 NNE 9 9 5 5 1020.6 1018.7 0.0
18/10:30pm 9.5 7.3 9.5 100 0.0 NNE 11 13 6 7 1020.8 1019.0 0.0
18/10:00pm 9.7 8.0 9.7 100 0.0 NNE 9 13 5 7 1021.1 1019.2 0.0
18/09:30pm 9.6 7.8 9.6 100 0.0 NNE 9 9 5 5 1021.1 1019.2 0.0
18/09:00pm 9.9 8.2 9.9 100 0.0 NE 9 9 5 5 1021.1 1019.2 0.0
18/08:30pm 10.2 9.0 10.2 100 0.0 NE 7 9 4 5 1021.0 1019.1 0.0
18/08:00pm 10.3 8.3 10.3 100 0.0 NE 11 13 6 7 1021.0 1019.1 0.0
18/07:30pm 10.8 9.0 10.8 100 0.0 NE 11 15 6 8 1020.7 1018.9 0.0
18/07:00pm 10.7 8.9 10.7 100 0.0 NE 11 13 6 7 1020.6 1018.7 0.0
18/06:30pm 11.2 8.9 10.3 94 0.5 NE 13 15 7 8 1020.3 1018.4 0.0
18/06:00pm 11.7 8.6 7.4 75 2.2 NE 13 17 7 9 1019.9 1018.0 0.0
18/05:30pm 12.4 9.7 5.8 64 3.2 SW 9 13 5 7 1019.7 1017.8 0.0
18/05:00pm 13.8 11.4 5.2 56 4.2 SW 7 9 4 5 1019.5 1017.6 0.0
18/04:30pm 15.4 12.6 5.0 50 5.1 SW 9 11 5 6 1019.4 1017.5 0.0
18/04:00pm 16.0 13.7 5.6 50 5.2 SW 7 11 4 6 1019.4 1017.5 0.0
18/03:30pm 16.8 14.6 5.4 47 5.7 SW 6 9 3 5 1019.7 1017.8 0.0
18/03:00pm 16.8 14.5 4.8 45 5.9 SW 6 13 3 7 1019.8 1017.9 0.0
18/02:30pm 16.6 14.8 5.3 47 5.7 SW 4 9 2 5 1019.8 1017.9 0.0
18/02:00pm 16.7 14.2 5.0 46 5.8 SSW 7 17 4 9 1019.9 1018.0 0.0
18/01:30pm 16.3 14.6 5.9 50 5.3 SSW 4 7 2 4 1020.3 1018.4 0.0
18/01:00pm 15.0 13.9 6.8 58 4.2 SSW 2 4 1 2 1020.8 1019.0 0.0
18/12:30pm 13.5 11.2 5.7 59 3.9 SSW 7 9 4 5 1021.4 1019.5 0.0
18/12:00pm 13.2 11.4 7.0 66 3.1 SW 6 9 3 5 1021.8 1020.0 0.0
18/11:30am 13.3 11.6 5.9 61 3.7 SW 4 6 2 3 1022.3 1020.4 0.0

Other formats

Comma delimited format used in spreadsheet applications
http://www.bom.gov.au/fwo/IDN60801/IDN60801.99742.axf

JavaScript Object Notation format (JSON) in row-major order
http://www.bom.gov.au/fwo/IDN60801/IDN60801.99742.json

Data quality

Most of these data are generated automatically and are frequently updated. Quality checks on data are not normally performed. It is possible for incorrect values to appear. Refer to information at About Latest Weather Observations and please check the disclaimer before using these data.